Time;durP1;ratioP1;P1;durP2;ratioP2;P2;SDS_P1;SDS_P2;PMS_P1;PMS_P2;Temp;Humidity;BMP_temperature;BMP_pressure;BME280_temperature;BME280_humidity;BME280_pressure;Samples;Min_cycle;Max_cycle;Signal;HPM_P1;HPM_P2
2024/02/18 00:01:03;;;;;;;5.27;3.80;;;;;;;;;;4844004;29;20534;-87
2024/02/18 00:04:08;;;;;;;5.07;3.97;;;;;;;;;;4845089;29;20188;-86
2024/02/18 00:07:12;;;;;;;6.27;4.00;;;;;;;;;;4844562;29;20188;-86
2024/02/18 00:10:16;;;;;;;7.00;3.90;;;;;;;;;;4844566;29;20235;-86
2024/02/18 00:13:20;;;;;;;5.40;3.83;;;;;;;;;;4854524;29;20183;-86
2024/02/18 00:16:25;;;;;;;4.70;3.67;;;;;;;;;;4854303;29;20191;-86
2024/02/18 00:19:29;;;;;;;5.60;3.73;;;;;;;;;;4854181;29;20223;-86
2024/02/18 00:22:33;;;;;;;5.53;3.67;;;;;;;;;;4854107;29;20216;-86
2024/02/18 00:25:37;;;;;;;7.77;3.80;;;;;;;;;;4844556;29;20192;-87
2024/02/18 00:28:42;;;;;;;5.30;4.03;;;;;;;;;;4844639;29;20231;-86
2024/02/18 00:31:47;;;;;;;4.93;4.00;;;;;;;;;;4853968;29;20188;-86
2024/02/18 00:34:51;;;;;;;7.50;3.90;;;;;;;;;;4854136;29;20192;-86
2024/02/18 00:37:55;;;;;;;5.23;3.93;;;;;;;;;;4843909;29;20196;-86
2024/02/18 00:40:59;;;;;;;6.37;4.03;;;;;;;;;;4833566;29;20191;-87
2024/02/18 00:44:03;;;;;;;6.40;4.60;;;;;;;;;;4854280;29;20187;-86
2024/02/18 00:47:07;;;;;;;6.53;4.93;;;;;;;;;;4843353;29;20192;-86
2024/02/18 00:50:12;;;;;;;5.80;4.57;;;;;;;;;;4844283;29;20565;-85
2024/02/18 00:53:16;;;;;;;5.90;4.53;;;;;;;;;;4842791;29;20176;-86
2024/02/18 00:56:20;;;;;;;5.47;4.43;;;;;;;;;;4843518;29;20632;-85
2024/02/18 00:59:25;;;;;;;6.83;4.17;;;;;;;;;;4832569;29;20223;-87
2024/02/18 01:02:30;;;;;;;5.97;4.60;;;;;;;;;;4853460;29;20212;-85
2024/02/18 01:05:34;;;;;;;5.30;4.33;;;;;;;;;;4833052;29;20231;-86
2024/02/18 01:08:38;;;;;;;5.17;4.30;;;;;;;;;;4853143;29;20191;-86
2024/02/18 01:11:42;;;;;;;5.47;4.73;;;;;;;;;;4843271;29;20184;-86
2024/02/18 01:14:47;;;;;;;6.33;4.97;;;;;;;;;;4833145;29;20196;-85
2024/02/18 01:17:51;;;;;;;6.80;4.27;;;;;;;;;;4832105;29;20192;-85
2024/02/18 01:20:55;;;;;;;6.07;4.63;;;;;;;;;;4842967;29;20196;-85
2024/02/18 01:23:59;;;;;;;8.23;4.40;;;;;;;;;;4855436;29;20184;-87
2024/02/18 01:27:03;;;;;;;7.87;4.93;;;;;;;;;;4856365;29;20184;-84
2024/02/18 01:30:08;;;;;;;9.30;4.80;;;;;;;;;;4846997;29;20584;-85
2024/02/18 01:33:12;;;;;;;6.00;4.60;;;;;;;;;;4835126;29;20180;-86
2024/02/18 01:36:16;;;;;;;6.13;4.70;;;;;;;;;;4845722;29;20187;-85
2024/02/18 01:39:20;;;;;;;6.07;4.97;;;;;;;;;;4848735;29;20223;-87
2024/02/18 01:42:24;;;;;;;6.30;4.97;;;;;;;;;;4849698;29;20212;-87
2024/02/18 01:45:29;;;;;;;8.00;5.50;;;;;;;;;;4849986;29;20196;-87
2024/02/18 01:48:34;;;;;;;8.13;5.23;;;;;;;;;;4839952;29;20188;-87
2024/02/18 01:51:39;;;;;;;8.23;5.67;;;;;;;;;;4848814;29;20192;-85
2024/02/18 01:54:45;;;;;;;6.83;5.10;;;;;;;;;;4853527;29;20187;-86
2024/02/18 01:57:50;;;;;;;6.90;4.63;;;;;;;;;;4853743;29;20192;-85
2024/02/18 02:00:54;;;;;;;5.73;4.60;;;;;;;;;;4853048;29;20192;-85
2024/02/18 02:04:00;;;;;;;9.13;4.60;;;;;;;;;;4849773;29;20175;-87
2024/02/18 02:07:06;;;;;;;6.47;4.50;;;;;;;;;;4861276;29;20633;-87
2024/02/18 02:10:14;;;;;;;5.97;4.87;;;;;;;;;;4848978;29;20231;-86
2024/02/18 02:13:19;;;;;;;7.23;4.80;;;;;;;;;;4859836;29;20184;-85
2024/02/18 02:16:23;;;;;;;7.50;5.50;;;;;;;;;;4861056;29;20183;-85
2024/02/18 02:19:28;;;;;;;8.90;5.07;;;;;;;;;;4862884;29;20227;-85
2024/02/18 02:22:32;;;;;;;7.00;5.30;;;;;;;;;;4849978;29;20223;-87
2024/02/18 02:25:37;;;;;;;6.53;4.60;;;;;;;;;;4849531;29;20188;-85
2024/02/18 02:28:49;;;;;;;5.83;4.80;;;;;;;;;;4850169;29;20224;-85
2024/02/18 02:31:53;;;;;;;6.23;4.90;;;;;;;;;;4859634;29;20188;-85
2024/02/18 02:34:58;;;;;;;7.30;4.50;;;;;;;;;;4848870;29;20196;-85
2024/02/18 02:38:02;;;;;;;7.00;4.27;;;;;;;;;;4848397;29;20191;-85
2024/02/18 02:41:07;;;;;;;4.60;3.77;;;;;;;;;;4848986;29;20183;-87
2024/02/18 02:44:11;;;;;;;5.77;3.90;;;;;;;;;;4859331;29;20184;-87
2024/02/18 02:47:16;;;;;;;6.07;4.40;;;;;;;;;;4848126;29;20192;-86
2024/02/18 02:50:20;;;;;;;5.47;4.40;;;;;;;;;;4858880;29;20223;-84
2024/02/18 02:53:24;;;;;;;7.27;4.37;;;;;;;;;;4858913;29;20184;-86
2024/02/18 02:56:29;;;;;;;6.57;3.70;;;;;;;;;;4848836;29;20188;-84
2024/02/18 02:59:33;;;;;;;6.23;4.00;;;;;;;;;;4849431;29;20228;-88
2024/02/18 03:02:41;;;;;;;8.17;4.03;;;;;;;;;;4850197;29;20211;-85
2024/02/18 03:05:45;;;;;;;6.37;3.80;;;;;;;;;;4859219;29;20187;-87
2024/02/18 03:08:49;;;;;;;5.23;4.17;;;;;;;;;;4849338;29;20231;-85
2024/02/18 03:11:54;;;;;;;7.47;4.20;;;;;;;;;;4854533;29;20187;-86
2024/02/18 03:22:17;;;;;;;5.73;4.20;;;;;;;;;;4912499;29;20194;-86
2024/02/18 03:41:20;;;;;;;5.87;3.63;;;;;;;;;;4848959;29;20180;-85
2024/02/18 03:44:25;;;;;;;5.97;4.13;;;;;;;;;;4927214;28;20202;-85
2024/02/18 03:47:30;;;;;;;4.90;3.80;;;;;;;;;;4867425;29;20179;-86
2024/02/18 03:50:34;;;;;;;5.17;3.90;;;;;;;;;;4856976;29;20215;-86
2024/02/18 03:53:39;;;;;;;6.17;4.00;;;;;;;;;;4855187;29;20191;-86
2024/02/18 03:56:43;;;;;;;6.33;4.50;;;;;;;;;;4856603;29;20183;-85
2024/02/18 03:59:47;;;;;;;4.93;3.80;;;;;;;;;;4866674;29;20227;-85
2024/02/18 04:02:52;;;;;;;5.77;3.77;;;;;;;;;;4855886;29;20219;-85
2024/02/18 04:05:56;;;;;;;6.30;4.17;;;;;;;;;;4866837;29;20187;-84
2024/02/18 04:09:00;;;;;;;5.43;3.67;;;;;;;;;;4856302;29;20231;-85
2024/02/18 04:12:04;;;;;;;7.77;4.07;;;;;;;;;;4867102;29;20184;-86
2024/02/18 04:15:09;;;;;;;5.90;4.10;;;;;;;;;;4855394;29;20188;-85
2024/02/18 04:18:13;;;;;;;6.53;3.40;;;;;;;;;;4855101;29;20192;-85
2024/02/18 04:21:18;;;;;;;6.90;3.37;;;;;;;;;;4855197;29;20506;-85
2024/02/18 04:24:22;;;;;;;5.27;3.83;;;;;;;;;;4855640;29;20211;-86
2024/02/18 04:27:26;;;;;;;6.43;4.80;;;;;;;;;;4855352;29;20187;-85
2024/02/18 04:30:31;;;;;;;5.43;4.20;;;;;;;;;;4855532;29;20219;-86
2024/02/18 04:33:35;;;;;;;6.90;4.53;;;;;;;;;;4845165;29;20176;-85
2024/02/18 04:36:39;;;;;;;6.53;4.27;;;;;;;;;;4855155;29;20188;-85
2024/02/18 04:39:43;;;;;;;5.80;3.83;;;;;;;;;;4855433;29;20219;-84
2024/02/18 04:42:48;;;;;;;5.97;4.20;;;;;;;;;;4843940;29;20215;-86
2024/02/18 04:45:52;;;;;;;5.80;4.63;;;;;;;;;;4854693;29;20183;-85
2024/02/18 04:48:57;;;;;;;6.23;4.03;;;;;;;;;;4845028;29;20216;-86
2024/02/18 04:52:01;;;;;;;5.97;4.57;;;;;;;;;;4844791;29;20188;-84
2024/02/18 04:55:06;;;;;;;6.00;4.53;;;;;;;;;;4865610;29;20196;-85
2024/02/18 04:58:10;;;;;;;5.73;4.80;;;;;;;;;;4844567;29;20183;-84
2024/02/18 05:01:14;;;;;;;6.23;4.73;;;;;;;;;;4854464;29;20188;-85
2024/02/18 05:04:19;;;;;;;6.43;4.37;;;;;;;;;;4854588;29;20223;-84
2024/02/18 05:07:24;;;;;;;6.23;4.40;;;;;;;;;;4854794;29;20184;-85
2024/02/18 05:10:28;;;;;;;5.97;4.20;;;;;;;;;;4855293;29;20227;-85
2024/02/18 05:13:32;;;;;;;8.00;4.53;;;;;;;;;;4855678;29;20184;-84
2024/02/18 05:16:37;;;;;;;7.50;4.70;;;;;;;;;;4856501;29;20183;-84
2024/02/18 05:19:42;;;;;;;8.20;4.40;;;;;;;;;;4855239;29;20219;-84
2024/02/18 05:22:46;;;;;;;6.50;4.80;;;;;;;;;;4844261;29;20220;-86
2024/02/18 05:25:51;;;;;;;7.80;4.30;;;;;;;;;;4844273;29;20192;-84
2024/02/18 05:28:56;;;;;;;9.37;4.80;;;;;;;;;;4854112;29;20592;-85
2024/02/18 05:32:00;;;;;;;5.67;3.97;;;;;;;;;;4844294;29;20188;-84
2024/02/18 05:35:05;;;;;;;5.73;4.67;;;;;;;;;;4832917;29;20183;-84
2024/02/18 05:38:09;;;;;;;5.23;4.53;;;;;;;;;;4842850;29;20187;-84
2024/02/18 05:41:13;;;;;;;5.57;4.53;;;;;;;;;;4864925;29;20187;-84
2024/02/18 05:44:17;;;;;;;5.47;4.50;;;;;;;;;;4852762;29;20215;-84
2024/02/18 05:47:22;;;;;;;7.77;4.93;;;;;;;;;;4833062;29;20192;-85
2024/02/18 05:50:26;;;;;;;6.67;5.30;;;;;;;;;;4843902;29;20223;-84
2024/02/18 05:53:31;;;;;;;8.33;5.20;;;;;;;;;;4842883;29;20184;-84
2024/02/18 05:56:35;;;;;;;10.13;5.20;;;;;;;;;;4852687;29;20534;-84
2024/02/18 05:59:39;;;;;;;5.90;4.67;;;;;;;;;;4853188;29;20223;-85
2024/02/18 06:02:43;;;;;;;7.50;4.53;;;;;;;;;;4853641;29;20188;-84
2024/02/18 06:05:48;;;;;;;8.87;4.63;;;;;;;;;;4853876;29;20188;-84
2024/02/18 06:08:52;;;;;;;8.13;4.70;;;;;;;;;;4842442;29;20243;-84
2024/02/18 06:11:56;;;;;;;6.47;4.33;;;;;;;;;;4864097;29;20192;-84
2024/02/18 06:15:01;;;;;;;9.10;4.90;;;;;;;;;;4854125;29;20179;-85
2024/02/18 06:18:05;;;;;;;10.73;4.67;;;;;;;;;;4853955;29;20191;-85
2024/02/18 06:21:19;;;;;;;6.83;4.57;;;;;;;;;;4843381;29;20184;-85
2024/02/18 06:24:27;;;;;;;6.00;4.73;;;;;;;;;;4854567;29;20207;-84
2024/02/18 06:27:32;;;;;;;7.77;4.93;;;;;;;;;;4853685;29;20192;-84
2024/02/18 06:30:37;;;;;;;7.07;4.93;;;;;;;;;;4840087;29;20219;-86
2024/02/18 06:33:47;;;;;;;8.67;4.67;;;;;;;;;;4837861;29;20183;-86
2024/02/18 06:36:51;;;;;;;7.60;4.30;;;;;;;;;;4837343;29;20188;-85
2024/02/18 06:39:56;;;;;;;6.40;4.70;;;;;;;;;;4846800;29;20223;-86
2024/02/18 06:43:00;;;;;;;6.47;5.00;;;;;;;;;;4845969;29;20195;-87
2024/02/18 06:46:04;;;;;;;7.63;4.47;;;;;;;;;;4837703;29;20187;-85
2024/02/18 06:49:08;;;;;;;7.80;4.20;;;;;;;;;;4837992;29;20223;-85
2024/02/18 06:52:14;;;;;;;7.63;4.93;;;;;;;;;;4836666;29;20629;-85
2024/02/18 06:55:18;;;;;;;7.10;5.40;;;;;;;;;;4839484;29;20180;-86
2024/02/18 06:58:22;;;;;;;6.87;5.00;;;;;;;;;;4836464;29;20192;-86
2024/02/18 07:01:27;;;;;;;5.97;4.40;;;;;;;;;;4849721;29;20641;-85
2024/02/18 07:04:31;;;;;;;5.30;4.20;;;;;;;;;;4828934;29;20211;-85
2024/02/18 07:07:35;;;;;;;10.77;7.30;;;;;;;;;;4847224;29;20183;-86
2024/02/18 07:10:40;;;;;;;7.80;5.30;;;;;;;;;;4840343;29;20235;-86
2024/02/18 07:13:44;;;;;;;8.23;5.30;;;;;;;;;;4848459;29;20183;-86
2024/02/18 07:16:48;;;;;;;12.63;8.30;;;;;;;;;;4839670;29;20649;-86
2024/02/18 07:19:53;;;;;;;15.53;9.37;;;;;;;;;;4839644;29;20223;-85
2024/02/18 07:22:59;;;;;;;11.40;8.13;;;;;;;;;;4840276;29;20188;-87
2024/02/18 07:26:04;;;;;;;14.53;9.37;;;;;;;;;;4854824;29;20188;-86
2024/02/18 07:29:08;;;;;;;31.97;20.53;;;;;;;;;;4834780;29;20231;-86
2024/02/18 07:32:13;;;;;;;39.93;24.30;;;;;;;;;;4855005;29;20190;-84
2024/02/18 07:35:18;;;;;;;15.90;10.70;;;;;;;;;;4842392;29;20184;-85
2024/02/18 07:38:22;;;;;;;11.40;7.50;;;;;;;;;;4843418;29;20195;-86
2024/02/18 07:41:26;;;;;;;7.97;5.97;;;;;;;;;;4843818;29;20192;-85
2024/02/18 07:44:31;;;;;;;7.73;6.07;;;;;;;;;;4845672;29;20220;-85
2024/02/18 07:47:35;;;;;;;9.27;7.70;;;;;;;;;;4847784;29;20183;-84
2024/02/18 07:50:39;;;;;;;11.57;7.50;;;;;;;;;;4843849;29;20227;-85
2024/02/18 07:53:44;;;;;;;8.47;7.17;;;;;;;;;;4843003;29;20180;-85
2024/02/18 07:56:48;;;;;;;9.60;7.63;;;;;;;;;;4843355;29;20187;-85
2024/02/18 07:59:53;;;;;;;10.97;6.60;;;;;;;;;;4844666;29;20223;-86
2024/02/18 08:02:58;;;;;;;6.90;5.00;;;;;;;;;;4866380;29;20187;-84
2024/02/18 08:06:02;;;;;;;7.00;5.20;;;;;;;;;;4853552;29;20179;-86
2024/02/18 08:09:07;;;;;;;8.90;7.10;;;;;;;;;;4845265;29;20235;-84
2024/02/18 08:12:13;;;;;;;10.10;6.73;;;;;;;;;;4844479;29;20196;-86
2024/02/18 08:15:17;;;;;;;7.97;5.97;;;;;;;;;;4845131;29;20184;-85
2024/02/18 08:18:21;;;;;;;7.40;5.50;;;;;;;;;;4866660;29;20188;-84
2024/02/18 08:21:25;;;;;;;6.97;4.60;;;;;;;;;;4844995;29;20188;-83
2024/02/18 08:24:31;;;;;;;6.57;4.97;;;;;;;;;;4839184;29;20565;-85
2024/02/18 08:27:35;;;;;;;7.87;5.53;;;;;;;;;;4864906;29;20569;-85
2024/02/18 08:30:39;;;;;;;7.73;6.40;;;;;;;;;;4842677;29;20223;-85
2024/02/18 08:33:45;;;;;;;6.73;5.00;;;;;;;;;;4863058;29;20183;-86
2024/02/18 08:36:49;;;;;;;7.23;5.37;;;;;;;;;;4863028;29;20191;-85
2024/02/18 08:39:54;;;;;;;7.57;5.07;;;;;;;;;;4853223;29;20227;-86
2024/02/18 08:42:58;;;;;;;6.50;5.13;;;;;;;;;;4841292;29;20192;-85
2024/02/18 08:46:02;;;;;;;7.97;6.00;;;;;;;;;;4841522;29;20176;-85
2024/02/18 08:49:06;;;;;;;8.40;6.80;;;;;;;;;;4840267;29;20227;-86
2024/02/18 08:52:10;;;;;;;7.37;5.67;;;;;;;;;;4852651;29;20187;-85
2024/02/18 08:55:15;;;;;;;6.03;5.17;;;;;;;;;;4842170;29;20522;-85
2024/02/18 08:58:19;;;;;;;6.83;6.00;;;;;;;;;;4838677;29;20188;-86
2024/02/18 09:01:23;;;;;;;7.13;5.17;;;;;;;;;;4843102;29;20184;-85
2024/02/18 09:04:28;;;;;;;7.47;5.00;;;;;;;;;;4844559;29;20219;-85
2024/02/18 09:07:33;;;;;;;8.03;5.90;;;;;;;;;;4842643;29;20184;-87
2024/02/18 09:10:37;;;;;;;6.77;5.13;;;;;;;;;;4837785;29;20231;-88
2024/02/18 09:13:42;;;;;;;8.07;5.60;;;;;;;;;;4853919;29;20187;-87
2024/02/18 09:16:48;;;;;;;7.43;5.30;;;;;;;;;;4854073;29;20518;-88
2024/02/18 09:19:51;;;;;;;8.90;5.60;;;;;;;;;;4853572;29;20223;-87
2024/02/18 09:22:57;;;;;;;7.93;5.37;;;;;;;;;;4853683;29;20183;-87
2024/02/18 09:26:02;;;;;;;6.40;4.87;;;;;;;;;;4844195;29;20184;-87
2024/02/18 09:29:06;;;;;;;8.80;4.50;;;;;;;;;;4853758;29;20223;-87
2024/02/18 09:32:10;;;;;;;7.77;4.83;;;;;;;;;;4843960;29;20188;-88
2024/02/18 09:35:14;;;;;;;7.77;5.00;;;;;;;;;;4833326;29;20180;-86
2024/02/18 09:38:19;;;;;;;7.67;5.63;;;;;;;;;;4844415;29;20188;-87
2024/02/18 09:41:27;;;;;;;6.80;5.70;;;;;;;;;;4843656;29;20192;-87
2024/02/18 09:44:34;;;;;;;7.90;5.10;;;;;;;;;;4844502;29;20681;-86
2024/02/18 09:47:40;;;;;;;8.33;5.80;;;;;;;;;;4854927;29;20192;-86
2024/02/18 09:50:48;;;;;;;8.93;4.77;;;;;;;;;;4853393;29;20219;-87
2024/02/18 09:53:54;;;;;;;7.33;5.20;;;;;;;;;;4832776;29;20188;-87
2024/02/18 09:56:58;;;;;;;9.13;5.60;;;;;;;;;;4843916;29;20184;-87
2024/02/18 10:00:05;;;;;;;7.30;5.50;;;;;;;;;;4853024;29;20228;-88
2024/02/18 10:03:09;;;;;;;7.40;5.53;;;;;;;;;;4846170;29;20191;-88
2024/02/18 10:06:13;;;;;;;7.77;5.73;;;;;;;;;;4832491;29;20188;-88
2024/02/18 10:09:19;;;;;;;7.90;6.00;;;;;;;;;;4853698;29;20231;-88
2024/02/18 10:12:24;;;;;;;7.40;4.47;;;;;;;;;;4853082;29;20184;-88
2024/02/18 10:15:30;;;;;;;6.30;4.70;;;;;;;;;;4832225;29;20523;-88
2024/02/18 10:18:34;;;;;;;4.77;3.50;;;;;;;;;;4831939;29;20188;-88
2024/02/18 10:21:38;;;;;;;3.70;2.90;;;;;;;;;;4842734;29;20191;-86
2024/02/18 10:24:43;;;;;;;3.33;2.70;;;;;;;;;;4836873;29;20220;-82
2024/02/18 10:27:49;;;;;;;4.73;3.13;;;;;;;;;;4834022;29;20192;-80
2024/02/18 10:31:02;;;;;;;4.77;3.53;;;;;;;;;;4837353;29;20259;-82
2024/02/18 10:34:10;;;;;;;5.03;3.40;;;;;;;;;;4843254;29;20188;-82
2024/02/18 10:37:25;;;;;;;5.60;3.57;;;;;;;;;;4836523;29;20195;-83
2024/02/18 10:40:39;;;;;;;4.47;3.60;;;;;;;;;;4835615;29;20228;-83
2024/02/18 10:43:48;;;;;;;4.43;3.27;;;;;;;;;;4835149;29;20184;-80
2024/02/18 10:46:54;;;;;;;4.97;3.27;;;;;;;;;;4834071;29;20191;-80
2024/02/18 10:50:06;;;;;;;3.13;2.70;;;;;;;;;;4845323;29;20231;-80
2024/02/18 10:53:32;;;;;;;3.63;2.37;;;;;;;;;;4835642;29;20188;-83
2024/02/18 10:56:40;;;;;;;3.70;2.93;;;;;;;;;;4824181;29;20185;-88
2024/02/18 11:00:00;;;;;;;3.30;2.60;;;;;;;;;;4822786;29;20220;-89
2024/02/18 11:03:37;;;;;;;3.90;3.23;;;;;;;;;;4822447;29;20276;-90
2024/02/18 11:06:42;;;;;;;2.90;2.60;;;;;;;;;;4822988;29;20189;-89
2024/02/18 11:09:47;;;;;;;4.37;2.27;;;;;;;;;;4822003;29;20231;-87
2024/02/18 11:12:53;;;;;;;5.23;2.53;;;;;;;;;;4823077;29;20192;-87
2024/02/18 11:15:58;;;;;;;4.37;2.60;;;;;;;;;;4822856;29;20188;-87
2024/02/18 11:19:03;;;;;;;5.43;3.03;;;;;;;;;;4822233;29;20219;-88
2024/02/18 11:22:09;;;;;;;10.53;3.77;;;;;;;;;;4833645;29;20193;-81
2024/02/18 11:25:12;;;;;;;4.47;3.93;;;;;;;;;;4825359;29;20228;-87
2024/02/18 11:28:17;;;;;;;3.97;3.10;;;;;;;;;;4811339;29;20535;-87
2024/02/18 11:31:26;;;;;;;3.43;2.70;;;;;;;;;;4822183;29;20193;-87
2024/02/18 11:34:30;;;;;;;3.03;2.27;;;;;;;;;;4822802;29;20188;-84
2024/02/18 11:37:34;;;;;;;4.13;2.17;;;;;;;;;;4824230;29;20185;-83
2024/02/18 11:40:46;;;;;;;5.30;2.23;;;;;;;;;;4823060;29;20220;-83
2024/02/18 11:43:54;;;;;;;1.50;1.37;;;;;;;;;;4823593;29;20184;-88
2024/02/18 11:46:58;;;;;;;1.97;1.50;;;;;;;;;;4823439;29;20185;-84
2024/02/18 11:50:07;;;;;;;4.27;1.70;;;;;;;;;;4823888;29;20224;-88
2024/02/18 11:53:11;;;;;;;3.17;2.20;;;;;;;;;;4830355;29;20527;-86
2024/02/18 11:56:16;;;;;;;2.87;2.00;;;;;;;;;;4834702;29;20180;-86
2024/02/18 11:59:20;;;;;;;3.87;2.10;;;;;;;;;;4825764;29;20232;-87
2024/02/18 12:02:24;;;;;;;2.77;2.07;;;;;;;;;;4836081;29;20184;-87
2024/02/18 12:05:29;;;;;;;2.60;2.33;;;;;;;;;;4814947;29;20220;-87
2024/02/18 12:08:34;;;;;;;3.73;2.33;;;;;;;;;;4825441;29;20203;-87
2024/02/18 12:11:46;;;;;;;4.13;2.33;;;;;;;;;;4825536;29;20189;-87
2024/02/18 12:14:51;;;;;;;3.87;2.50;;;;;;;;;;4825580;29;20511;-87
2024/02/18 12:17:59;;;;;;;3.70;2.37;;;;;;;;;;4826205;29;20196;-87
2024/02/18 12:21:04;;;;;;;4.10;3.03;;;;;;;;;;4814883;29;20192;-87
2024/02/18 12:24:08;;;;;;;5.00;2.70;;;;;;;;;;4825375;29;20193;-87
2024/02/18 12:27:13;;;;;;;5.80;3.47;;;;;;;;;;4825033;29;20180;-88
2024/02/18 12:30:21;;;;;;;3.83;3.07;;;;;;;;;;4825071;29;20224;-87
2024/02/18 12:33:25;;;;;;;4.20;3.10;;;;;;;;;;4824701;29;20192;-88
2024/02/18 12:36:29;;;;;;;5.37;2.97;;;;;;;;;;4815023;29;20181;-87
2024/02/18 12:39:34;;;;;;;4.07;2.57;;;;;;;;;;4824594;29;20558;-87
2024/02/18 12:42:38;;;;;;;4.57;3.10;;;;;;;;;;4825027;29;20193;-87
2024/02/18 12:45:42;;;;;;;4.57;2.93;;;;;;;;;;4825848;29;20220;-85
2024/02/18 12:48:46;;;;;;;3.60;2.87;;;;;;;;;;4825591;29;20228;-86
2024/02/18 12:52:21;;;;;;;3.60;2.70;;;;;;;;;;4825001;29;20192;-87
2024/02/18 12:55:28;;;;;;;4.30;2.40;;;;;;;;;;4813715;29;20181;-88
2024/02/18 12:58:33;;;;;;;2.67;1.77;;;;;;;;;;4836439;29;20188;-86
2024/02/18 13:01:38;;;;;;;3.53;2.20;;;;;;;;;;4825487;29;20188;-86
2024/02/18 13:04:51;;;;;;;3.50;1.90;;;;;;;;;;4826295;29;20634;-86
2024/02/18 13:07:56;;;;;;;3.17;2.47;;;;;;;;;;4812337;29;20184;-87
2024/02/18 13:11:00;;;;;;;4.87;2.13;;;;;;;;;;4825686;29;20211;-88
2024/02/18 13:14:04;;;;;;;3.40;2.40;;;;;;;;;;4829209;29;20196;-86
2024/02/18 13:17:09;;;;;;;3.60;2.27;;;;;;;;;;4834690;29;20180;-86
2024/02/18 13:20:14;;;;;;;2.53;2.07;;;;;;;;;;4824954;29;20224;-87
2024/02/18 13:23:18;;;;;;;2.73;2.07;;;;;;;;;;4827246;29;20185;-85
2024/02/18 13:26:22;;;;;;;7.00;2.20;;;;;;;;;;4825417;29;20220;-87
2024/02/18 13:29:26;;;;;;;3.10;2.00;;;;;;;;;;4813424;29;20224;-87
2024/02/18 13:32:30;;;;;;;3.23;2.13;;;;;;;;;;4823925;29;20192;-87
2024/02/18 13:35:34;;;;;;;5.57;2.30;;;;;;;;;;4824677;29;20184;-86
2024/02/18 13:38:41;;;;;;;4.30;2.80;;;;;;;;;;4824121;29;20539;-86
2024/02/18 13:41:47;;;;;;;3.37;2.37;;;;;;;;;;4824610;29;20188;-86
2024/02/18 13:44:51;;;;;;;3.60;2.57;;;;;;;;;;4824728;29;20188;-86
2024/02/18 13:47:56;;;;;;;3.97;2.93;;;;;;;;;;4834574;29;20184;-87
2024/02/18 13:50:59;;;;;;;4.37;3.53;;;;;;;;;;4814409;29;20192;-86
2024/02/18 13:54:04;;;;;;;6.70;2.97;;;;;;;;;;4825046;29;20188;-86
2024/02/18 13:57:09;;;;;;;4.63;3.47;;;;;;;;;;4803259;29;20184;-86
2024/02/18 14:00:15;;;;;;;5.37;3.53;;;;;;;;;;4823804;29;20223;-86
2024/02/18 14:03:19;;;;;;;4.40;3.50;;;;;;;;;;4829531;29;20192;-85
2024/02/18 14:06:25;;;;;;;4.30;2.93;;;;;;;;;;4826109;29;20216;-85
2024/02/18 14:09:29;;;;;;;5.03;3.07;;;;;;;;;;4823968;29;20231;-87
2024/02/18 14:12:33;;;;;;;4.27;3.50;;;;;;;;;;4823201;29;20531;-87
2024/02/18 14:15:38;;;;;;;4.80;3.70;;;;;;;;;;4823736;29;20527;-86
2024/02/18 14:18:45;;;;;;;5.47;3.53;;;;;;;;;;4823235;29;20224;-86
2024/02/18 14:21:49;;;;;;;4.43;3.43;;;;;;;;;;4813516;29;20192;-87
2024/02/18 14:24:56;;;;;;;5.07;3.67;;;;;;;;;;4825439;29;20188;-86
2024/02/18 14:28:09;;;;;;;4.83;3.23;;;;;;;;;;4826330;29;20642;-84
2024/02/18 14:31:25;;;;;;;5.93;3.63;;;;;;;;;;4816249;29;20189;-85
2024/02/18 14:34:32;;;;;;;4.73;3.57;;;;;;;;;;4827967;29;20189;-88
2024/02/18 14:37:36;;;;;;;5.13;3.13;;;;;;;;;;4834032;29;20192;-85
2024/02/18 14:40:41;;;;;;;5.07;3.83;;;;;;;;;;4838456;29;20219;-85
2024/02/18 14:43:46;;;;;;;6.47;3.97;;;;;;;;;;4840177;29;20188;-87
2024/02/18 14:46:52;;;;;;;4.63;3.60;;;;;;;;;;4830181;29;20223;-89
2024/02/18 14:49:57;;;;;;;4.53;3.67;;;;;;;;;;4820141;29;20228;-87
2024/02/18 14:53:01;;;;;;;3.63;3.20;;;;;;;;;;4810490;29;20184;-86
2024/02/18 14:56:06;;;;;;;4.57;3.63;;;;;;;;;;4832303;29;20180;-86
2024/02/18 14:59:11;;;;;;;4.03;3.23;;;;;;;;;;4831134;29;20220;-87
2024/02/18 15:02:18;;;;;;;5.03;3.07;;;;;;;;;;4831771;29;20651;-87
2024/02/18 15:05:25;;;;;;;4.30;3.03;;;;;;;;;;4831735;29;20188;-87
2024/02/18 15:08:29;;;;;;;4.73;3.27;;;;;;;;;;4830162;29;20208;-87
2024/02/18 15:11:34;;;;;;;7.63;4.23;;;;;;;;;;4840754;29;20188;-87
2024/02/18 15:14:39;;;;;;;4.40;3.70;;;;;;;;;;4829371;29;20188;-87
2024/02/18 15:17:43;;;;;;;8.23;4.77;;;;;;;;;;4830049;29;20180;-87
2024/02/18 15:20:48;;;;;;;6.77;3.60;;;;;;;;;;4828903;29;20184;-87
2024/02/18 15:23:52;;;;;;;7.17;3.73;;;;;;;;;;4832704;29;20188;-87
2024/02/18 15:26:57;;;;;;;4.90;3.63;;;;;;;;;;4832115;29;20561;-87
2024/02/18 15:30:01;;;;;;;4.27;3.50;;;;;;;;;;4832136;29;20228;-87
2024/02/18 15:33:07;;;;;;;4.53;3.33;;;;;;;;;;4832876;29;20181;-86
2024/02/18 15:36:11;;;;;;;5.17;3.23;;;;;;;;;;4833197;29;20189;-87
2024/02/18 15:39:16;;;;;;;4.40;3.37;;;;;;;;;;4831477;29;20228;-87
2024/02/18 15:42:20;;;;;;;6.37;3.70;;;;;;;;;;4832181;29;20188;-86
2024/02/18 15:45:25;;;;;;;3.97;2.97;;;;;;;;;;4821352;29;20192;-86
2024/02/18 15:48:30;;;;;;;3.47;2.87;;;;;;;;;;4831623;29;20177;-86
2024/02/18 15:51:35;;;;;;;3.90;2.90;;;;;;;;;;4831043;29;20188;-87
2024/02/18 15:54:39;;;;;;;3.83;3.00;;;;;;;;;;4820314;29;20231;-87
2024/02/18 15:57:44;;;;;;;3.17;2.47;;;;;;;;;;4831874;29;20184;-88
2024/02/18 16:00:48;;;;;;;3.37;2.77;;;;;;;;;;4829886;29;20188;-87
2024/02/18 16:03:52;;;;;;;4.60;2.40;;;;;;;;;;4839507;29;20638;-86
2024/02/18 16:06:56;;;;;;;3.60;2.80;;;;;;;;;;4828847;29;20212;-87
2024/02/18 16:10:00;;;;;;;2.77;2.03;;;;;;;;;;4828872;29;20231;-87
2024/02/18 16:13:04;;;;;;;2.40;2.10;;;;;;;;;;4828335;29;20551;-85
2024/02/18 16:16:09;;;;;;;2.77;2.30;;;;;;;;;;4829094;29;20189;-87
2024/02/18 16:19:13;;;;;;;4.00;2.03;;;;;;;;;;4829013;29;20216;-86
2024/02/18 16:22:17;;;;;;;2.80;2.37;;;;;;;;;;4828616;29;20192;-86
2024/02/18 16:25:23;;;;;;;4.37;2.20;;;;;;;;;;4838571;29;20192;-86
2024/02/18 16:28:27;;;;;;;3.60;2.07;;;;;;;;;;4829185;29;20184;-86
2024/02/18 16:31:31;;;;;;;2.73;2.07;;;;;;;;;;4828071;29;20642;-86
2024/02/18 16:34:36;;;;;;;3.93;2.10;;;;;;;;;;4829583;29;20189;-86
2024/02/18 16:37:41;;;;;;;2.43;1.83;;;;;;;;;;4817162;29;20188;-86
2024/02/18 16:40:45;;;;;;;3.80;2.00;;;;;;;;;;4827452;29;20693;-86
2024/02/18 16:43:50;;;;;;;2.27;2.00;;;;;;;;;;4838423;29;20188;-86
2024/02/18 16:46:54;;;;;;;2.63;2.07;;;;;;;;;;4838142;29;20701;-86
2024/02/18 16:49:59;;;;;;;3.87;2.43;;;;;;;;;;4827355;29;20228;-86
2024/02/18 16:53:04;;;;;;;3.37;2.37;;;;;;;;;;4827587;29;20630;-86
2024/02/18 16:56:08;;;;;;;2.97;2.37;;;;;;;;;;4827568;29;20188;-86
2024/02/18 16:59:13;;;;;;;2.67;2.30;;;;;;;;;;4827093;29;20220;-86
2024/02/18 17:02:19;;;;;;;3.43;2.70;;;;;;;;;;4806560;29;20188;-86
2024/02/18 17:05:23;;;;;;;3.23;2.20;;;;;;;;;;4837371;29;20189;-87
2024/02/18 17:08:26;;;;;;;4.27;2.33;;;;;;;;;;4816331;29;20185;-86
2024/02/18 17:11:33;;;;;;;4.13;2.67;;;;;;;;;;4827620;29;20196;-86
2024/02/18 17:14:37;;;;;;;4.60;2.63;;;;;;;;;;4826383;29;20184;-86
2024/02/18 17:17:41;;;;;;;3.23;2.50;;;;;;;;;;4816594;29;20180;-86
2024/02/18 17:20:45;;;;;;;2.67;2.23;;;;;;;;;;4826565;29;20220;-86
2024/02/18 17:23:51;;;;;;;2.90;2.40;;;;;;;;;;4816985;29;20184;-86
2024/02/18 17:26:58;;;;;;;2.60;2.20;;;;;;;;;;4827269;29;20221;-85
2024/02/18 17:30:03;;;;;;;2.27;2.03;;;;;;;;;;4826308;29;20231;-86
2024/02/18 17:33:07;;;;;;;4.40;2.60;;;;;;;;;;4824892;29;20188;-86
2024/02/18 17:36:12;;;;;;;4.30;2.70;;;;;;;;;;4825328;29;20526;-86
2024/02/18 17:39:19;;;;;;;3.63;2.50;;;;;;;;;;4835915;29;20228;-86
2024/02/18 17:42:23;;;;;;;3.93;2.70;;;;;;;;;;4825868;29;20192;-85
2024/02/18 17:45:28;;;;;;;5.37;2.83;;;;;;;;;;4826161;29;20196;-86
2024/02/18 17:48:32;;;;;;;3.10;2.80;;;;;;;;;;4825627;29;20181;-87
2024/02/18 17:51:37;;;;;;;3.63;2.57;;;;;;;;;;4836385;29;20192;-86
2024/02/18 17:54:41;;;;;;;3.80;2.73;;;;;;;;;;4834991;29;20188;-86
2024/02/18 17:57:45;;;;;;;4.47;2.93;;;;;;;;;;4825849;29;20516;-85
2024/02/18 18:00:49;;;;;;;6.77;2.63;;;;;;;;;;4826727;29;20622;-85
2024/02/18 18:03:53;;;;;;;3.23;2.67;;;;;;;;;;4836021;29;20196;-86
2024/02/18 18:06:58;;;;;;;3.20;2.60;;;;;;;;;;4825651;29;20220;-86
2024/02/18 18:10:02;;;;;;;3.30;2.87;;;;;;;;;;4827440;29;20240;-86
2024/02/18 18:13:07;;;;;;;5.33;2.63;;;;;;;;;;4826003;29;20184;-85
2024/02/18 18:16:11;;;;;;;3.30;3.00;;;;;;;;;;4827224;29;20189;-85
2024/02/18 18:19:15;;;;;;;3.57;2.90;;;;;;;;;;4825224;29;20216;-87
2024/02/18 18:22:19;;;;;;;4.40;3.20;;;;;;;;;;4826146;29;20523;-87
2024/02/18 18:25:23;;;;;;;4.47;3.10;;;;;;;;;;4826044;29;20200;-87
2024/02/18 18:28:28;;;;;;;4.07;3.10;;;;;;;;;;4815257;29;20220;-87
2024/02/18 18:31:32;;;;;;;4.50;3.13;;;;;;;;;;4826138;29;20185;-86
2024/02/18 18:34:36;;;;;;;5.93;3.83;;;;;;;;;;4826090;29;20188;-88
2024/02/18 18:37:40;;;;;;;7.60;3.90;;;;;;;;;;4814962;29;20184;-87
2024/02/18 18:40:44;;;;;;;6.20;3.80;;;;;;;;;;4825223;29;20219;-86
2024/02/18 18:43:48;;;;;;;4.73;3.70;;;;;;;;;;4825714;29;20192;-87
2024/02/18 18:46:52;;;;;;;5.43;4.20;;;;;;;;;;4825209;29;20559;-86
2024/02/18 18:49:56;;;;;;;5.53;3.90;;;;;;;;;;4825865;29;20562;-87
2024/02/18 18:53:01;;;;;;;6.37;4.90;;;;;;;;;;4836191;29;20192;-86